createdAt,value
2022-08-14T00:02:03.941Z,3.63
2022-08-14T00:04:35.660Z,4.10
2022-08-14T00:07:11.521Z,3.50
2022-08-14T00:10:01.843Z,3.88
2022-08-14T00:12:39.433Z,3.45
2022-08-14T00:15:37.700Z,4.13
2022-08-14T00:18:14.434Z,3.70
2022-08-14T00:20:43.222Z,3.33
2022-08-14T00:23:16.847Z,3.63
2022-08-14T00:25:53.758Z,3.38
2022-08-14T00:28:35.297Z,3.50
2022-08-14T00:31:03.765Z,3.63
2022-08-14T00:33:50.902Z,3.15
2022-08-14T00:36:48.134Z,3.38
2022-08-14T00:39:09.265Z,3.17
2022-08-14T00:41:38.826Z,3.67
2022-08-14T00:44:06.744Z,3.60
2022-08-14T00:46:33.741Z,3.22
2022-08-14T00:49:00.878Z,3.10
2022-08-14T00:51:34.678Z,3.05
2022-08-14T00:54:21.001Z,3.10
2022-08-14T00:57:12.447Z,3.72
2022-08-14T00:59:39.531Z,3.50
2022-08-14T01:02:09.533Z,2.95
2022-08-14T01:04:53.367Z,3.47
2022-08-14T01:07:23.123Z,3.72
2022-08-14T01:09:57.002Z,3.88
2022-08-14T01:12:27.358Z,3.38
2022-08-14T01:15:02.220Z,3.25
2022-08-14T01:17:52.253Z,3.40
2022-08-14T01:20:40.980Z,4.00
2022-08-14T01:23:16.855Z,3.67
2022-08-14T01:25:51.271Z,3.75
2022-08-14T01:28:47.046Z,4.03
2022-08-14T01:31:16.170Z,4.00
2022-08-14T01:33:59.647Z,4.13
2022-08-14T01:36:37.036Z,4.07
2022-08-14T01:39:13.653Z,4.07
2022-08-14T01:41:43.977Z,4.03
2022-08-14T01:44:32.620Z,4.57
2022-08-14T01:47:05.921Z,4.57
2022-08-14T01:49:35.495Z,3.63
2022-08-14T01:52:03.617Z,4.40
2022-08-14T01:54:37.996Z,5.10
2022-08-14T01:57:11.425Z,4.97
2022-08-14T01:59:41.098Z,3.80
2022-08-14T02:02:17.561Z,4.30
2022-08-14T02:04:56.237Z,4.35
2022-08-14T02:07:34.368Z,4.25
2022-08-14T02:10:15.870Z,4.50
2022-08-14T02:12:54.227Z,3.92
2022-08-14T02:15:25.744Z,4.00
2022-08-14T02:17:53.129Z,4.13
2022-08-14T02:20:23.690Z,3.92
2022-08-14T02:22:54.709Z,3.70
2022-08-14T02:25:22.447Z,4.30
2022-08-14T02:28:25.073Z,3.90
2022-08-14T02:30:43.110Z,4.10
2022-08-14T02:33:10.668Z,3.67
2022-08-14T02:35:41.310Z,4.25
2022-08-14T02:38:11.789Z,4.00
2022-08-14T02:40:48.773Z,3.97
2022-08-14T02:43:17.338Z,3.95
2022-08-14T02:45:49.777Z,4.15
2022-08-14T02:49:03.722Z,3.90
2022-08-14T02:51:07.130Z,3.40
2022-08-14T02:53:38.263Z,3.90
2022-08-14T02:56:30.097Z,3.90
2022-08-14T02:59:01.271Z,4.15
2022-08-14T03:01:31.280Z,4.30
2022-08-14T03:04:13.452Z,4.15
2022-08-14T03:06:57.856Z,4.38
2022-08-14T03:09:42.066Z,4.65
2022-08-14T03:12:26.982Z,5.65
2022-08-14T03:15:03.075Z,5.85
2022-08-14T03:17:32.007Z,5.63
2022-08-14T03:20:11.337Z,6.15
2022-08-14T03:22:39.879Z,4.65
2022-08-14T03:25:10.772Z,5.85
2022-08-14T03:27:48.569Z,5.95
2022-08-14T03:30:39.514Z,6.13
2022-08-14T03:33:13.427Z,6.57
2022-08-14T03:36:05.587Z,7.30
2022-08-14T03:39:10.505Z,6.53
2022-08-14T03:41:23.591Z,6.47
2022-08-14T03:43:57.765Z,6.05
2022-08-14T03:46:38.739Z,6.10
2022-08-14T03:49:24.403Z,7.10
2022-08-14T03:51:55.790Z,6.47
2022-08-14T03:54:24.497Z,7.45
2022-08-14T03:56:51.338Z,6.93
2022-08-14T03:59:19.669Z,7.82
2022-08-14T04:01:58.185Z,6.70
2022-08-14T04:04:32.416Z,7.35
2022-08-14T04:07:01.131Z,7.43
2022-08-14T04:09:29.190Z,7.07
2022-08-14T04:11:57.916Z,7.53
2022-08-14T04:14:25.111Z,8.20
2022-08-14T04:16:51.829Z,7.68
2022-08-14T04:19:23.798Z,8.40
2022-08-14T04:22:02.060Z,7.95
2022-08-14T04:24:38.352Z,8.13
2022-08-14T04:27:11.439Z,7.90
2022-08-14T04:29:40.141Z,9.05
2022-08-14T04:33:00.794Z,8.55
2022-08-14T04:34:57.489Z,8.95
2022-08-14T04:37:43.307Z,8.85
2022-08-14T04:40:32.196Z,8.18
2022-08-14T04:43:18.005Z,8.30
2022-08-14T04:45:45.500Z,9.15
2022-08-14T04:48:39.859Z,9.40
2022-08-14T04:51:16.499Z,8.85
2022-08-14T04:53:45.980Z,9.25
2022-08-14T04:56:31.252Z,9.60
2022-08-14T04:59:09.746Z,9.20
2022-08-14T05:01:47.882Z,9.30
2022-08-14T05:04:20.802Z,9.57
2022-08-14T05:06:53.721Z,9.05
2022-08-14T05:09:23.715Z,9.73
2022-08-14T05:11:51.628Z,9.90
2022-08-14T05:14:46.817Z,9.63
2022-08-14T05:17:11.016Z,9.73
2022-08-14T05:19:45.019Z,9.32
2022-08-14T05:22:27.089Z,9.43
2022-08-14T05:24:54.040Z,9.07
2022-08-14T05:27:23.042Z,10.13
2022-08-14T05:29:53.600Z,10.27
2022-08-14T05:32:22.925Z,9.85
2022-08-14T05:34:57.437Z,11.07
2022-08-14T05:37:24.463Z,10.48
2022-08-14T05:39:54.242Z,9.70
2022-08-14T05:42:29.314Z,10.02
2022-08-14T05:44:59.685Z,10.38
2022-08-14T05:47:33.713Z,9.90
2022-08-14T05:50:17.655Z,10.70
2022-08-14T05:52:50.178Z,9.65
2022-08-14T05:55:22.959Z,9.82
2022-08-14T05:57:52.999Z,10.77
2022-08-14T06:00:24.441Z,9.27
2022-08-14T06:03:00.440Z,9.90
2022-08-14T06:05:29.027Z,10.77
2022-08-14T06:07:58.500Z,10.45
2022-08-14T06:10:28.365Z,9.55
2022-08-14T06:12:57.375Z,10.07
2022-08-14T06:15:30.100Z,8.35
2022-08-14T06:17:59.597Z,8.73
2022-08-14T06:20:28.144Z,8.30
2022-08-14T06:22:56.250Z,8.15
2022-08-14T06:25:24.887Z,8.50
2022-08-14T06:27:52.165Z,8.50
2022-08-14T06:30:22.151Z,8.88
2022-08-14T06:32:52.581Z,9.00
2022-08-14T06:35:23.369Z,8.45
2022-08-14T06:37:55.579Z,7.97
2022-08-14T06:40:34.214Z,7.50
2022-08-14T06:43:07.210Z,7.57
2022-08-14T06:45:37.277Z,7.90
2022-08-14T06:48:32.725Z,7.45
2022-08-14T06:51:02.515Z,7.70
2022-08-14T06:53:30.231Z,7.45
2022-08-14T06:56:01.023Z,7.22
2022-08-14T06:58:30.751Z,6.65
2022-08-14T07:01:25.151Z,6.65
2022-08-14T07:04:24.091Z,7.10
2022-08-14T07:06:55.594Z,6.53
2022-08-14T07:09:27.895Z,6.72
2022-08-14T07:11:54.999Z,7.22
2022-08-14T07:14:23.040Z,7.13
2022-08-14T07:16:49.739Z,6.68
2022-08-14T07:19:20.781Z,6.13
2022-08-14T07:21:48.199Z,7.15
2022-08-14T07:24:26.248Z,6.50
2022-08-14T07:26:57.850Z,6.30
2022-08-14T07:29:28.993Z,6.70
2022-08-14T07:31:56.220Z,6.20
2022-08-14T07:34:36.600Z,6.38
2022-08-14T07:37:07.767Z,6.10
2022-08-14T07:39:36.709Z,5.82
2022-08-14T07:42:06.165Z,6.13
2022-08-14T07:44:45.813Z,5.90
2022-08-14T07:47:15.766Z,5.45
2022-08-14T07:50:01.776Z,5.55
2022-08-14T07:52:31.969Z,5.32
2022-08-14T07:55:00.359Z,4.93
2022-08-14T07:57:28.157Z,5.10
2022-08-14T07:59:54.868Z,5.72
2022-08-14T08:02:22.181Z,5.45
2022-08-14T08:04:54.560Z,5.22
2022-08-14T08:07:29.460Z,4.90
2022-08-14T08:09:57.961Z,5.20
2022-08-14T08:12:28.130Z,4.50
2022-08-14T08:15:05.833Z,5.93
2022-08-14T08:17:42.793Z,5.10
2022-08-14T08:20:27.251Z,4.93
2022-08-14T08:23:00.379Z,4.90
2022-08-14T08:25:30.499Z,4.82
2022-08-14T08:28:08.064Z,5.15
2022-08-14T08:30:37.738Z,4.70
2022-08-14T08:33:16.656Z,5.00
2022-08-14T08:35:50.358Z,5.13
2022-08-14T08:39:15.149Z,4.55
2022-08-14T08:41:09.619Z,4.35
2022-08-14T08:43:38.913Z,4.35
2022-08-14T08:46:21.041Z,4.80
2022-08-14T08:48:54.012Z,4.22
2022-08-14T08:51:51.061Z,4.53
2022-08-14T08:54:26.684Z,4.40
2022-08-14T08:56:58.393Z,5.30
2022-08-14T08:59:34.330Z,4.72
2022-08-14T09:02:06.724Z,4.35
2022-08-14T09:04:45.264Z,4.07
2022-08-14T09:07:26.202Z,4.10
2022-08-14T09:09:59.243Z,3.50
2022-08-14T09:12:36.076Z,3.75
2022-08-14T09:15:11.433Z,3.53
2022-08-14T09:17:43.294Z,4.00
2022-08-14T09:20:14.037Z,3.58
2022-08-14T09:22:54.628Z,3.60
2022-08-14T09:25:59.005Z,3.10
2022-08-14T09:28:10.297Z,3.35
2022-08-14T09:30:40.695Z,3.40
2022-08-14T09:33:23.297Z,3.13
2022-08-14T09:36:09.076Z,3.40
2022-08-14T09:38:54.760Z,3.05
2022-08-14T09:42:21.564Z,3.53
2022-08-14T09:45:16.597Z,3.40
2022-08-14T09:47:51.749Z,3.05
2022-08-14T09:50:31.274Z,2.83
2022-08-14T09:53:04.841Z,3.30
2022-08-14T09:55:42.630Z,2.95
2022-08-14T09:58:19.407Z,3.30
2022-08-14T10:00:49.358Z,3.30
2022-08-14T10:03:34.338Z,3.25
2022-08-14T10:06:13.621Z,3.20
2022-08-14T10:09:12.051Z,3.08
2022-08-14T10:11:58.983Z,2.85
2022-08-14T10:14:35.645Z,3.58
2022-08-14T10:17:06.542Z,3.25
2022-08-14T10:19:46.859Z,3.10
2022-08-14T10:23:12.296Z,2.92
2022-08-14T10:25:15.968Z,3.03
2022-08-14T10:27:46.377Z,2.72
2022-08-14T10:30:22.779Z,2.90
2022-08-14T10:32:54.455Z,2.55
2022-08-14T10:35:30.897Z,3.03
2022-08-14T10:38:00.644Z,2.90
2022-08-14T10:40:37.731Z,2.90
2022-08-14T10:43:18.447Z,2.60
2022-08-14T10:46:03.961Z,3.53
2022-08-14T10:48:45.863Z,2.70
2022-08-14T10:51:16.661Z,2.92
2022-08-14T10:53:56.838Z,2.60
2022-08-14T10:56:35.115Z,2.50
2022-08-14T10:59:07.125Z,2.42
2022-08-14T11:01:40.949Z,2.67
2022-08-14T11:04:25.320Z,2.42
2022-08-14T11:06:56.267Z,2.00
2022-08-14T11:09:23.340Z,2.55
2022-08-14T11:12:33.770Z,2.40
2022-08-14T11:14:51.143Z,2.17
2022-08-14T11:17:28.542Z,2.25
2022-08-14T11:20:01.725Z,2.50
2022-08-14T11:22:55.590Z,2.47
2022-08-14T11:25:23.521Z,2.70
2022-08-14T11:27:52.496Z,2.78
2022-08-14T11:30:50.526Z,2.42
2022-08-14T11:33:09.322Z,2.22
2022-08-14T11:35:44.292Z,2.50
2022-08-14T11:38:17.046Z,2.25
2022-08-14T11:40:46.722Z,2.40
2022-08-14T11:43:16.201Z,2.55
2022-08-14T11:45:47.925Z,2.55
2022-08-14T11:49:02.432Z,2.30
2022-08-14T11:51:13.377Z,2.35
2022-08-14T11:53:42.131Z,2.60
2022-08-14T11:56:11.099Z,2.85
2022-08-14T11:58:38.525Z,2.67
2022-08-14T12:01:09.565Z,2.50
2022-08-14T12:03:57.164Z,2.33
2022-08-14T12:06:29.687Z,2.55
2022-08-14T12:09:08.754Z,2.33
2022-08-14T12:11:43.811Z,2.20
2022-08-14T12:14:30.066Z,2.40
2022-08-14T12:17:05.130Z,2.60
2022-08-14T12:19:33.461Z,2.13
2022-08-14T12:22:02.802Z,2.65
2022-08-14T12:24:36.049Z,2.40
2022-08-14T12:27:06.619Z,2.70
2022-08-14T12:29:34.865Z,2.35
2022-08-14T12:32:08.893Z,2.60
2022-08-14T12:34:40.715Z,2.60
2022-08-14T12:37:12.012Z,2.60
2022-08-14T12:39:39.614Z,2.30
2022-08-14T12:42:07.693Z,2.67
2022-08-14T12:44:39.547Z,2.33
2022-08-14T12:47:17.550Z,2.35
2022-08-14T12:49:52.963Z,2.30
2022-08-14T12:52:47.326Z,2.47
2022-08-14T12:55:32.337Z,2.45
2022-08-14T12:58:02.335Z,2.40
2022-08-14T13:01:14.246Z,2.45
2022-08-14T13:03:37.525Z,2.38
2022-08-14T13:06:04.448Z,2.40
2022-08-14T13:08:33.702Z,2.53
2022-08-14T13:11:02.642Z,2.70
2022-08-14T13:13:34.315Z,2.28
2022-08-14T13:16:05.158Z,2.30
2022-08-14T13:18:58.333Z,2.70
2022-08-14T13:21:26.293Z,2.55
2022-08-14T13:23:54.638Z,2.33
2022-08-14T13:26:28.143Z,2.35
2022-08-14T13:29:02.754Z,2.55
2022-08-14T13:31:34.142Z,2.55
2022-08-14T13:34:01.320Z,2.58
2022-08-14T13:36:51.527Z,2.22
2022-08-14T13:39:19.832Z,2.65
2022-08-14T13:41:48.069Z,2.47
2022-08-14T13:44:26.679Z,2.70
2022-08-14T13:46:53.330Z,2.50
2022-08-14T13:49:19.936Z,2.33
2022-08-14T13:51:53.302Z,2.20
2022-08-14T13:54:21.106Z,2.50
2022-08-14T13:56:49.096Z,2.30
2022-08-14T13:59:20.496Z,2.40
2022-08-14T14:02:06.846Z,2.40
2022-08-14T14:04:40.790Z,2.80
2022-08-14T14:07:13.056Z,2.20
2022-08-14T14:09:52.686Z,2.63
2022-08-14T14:12:37.814Z,2.10
2022-08-14T14:15:09.701Z,2.40
2022-08-14T14:17:38.997Z,2.40
2022-08-14T14:20:11.354Z,2.20
2022-08-14T14:23:01.802Z,2.42
2022-08-14T14:25:45.835Z,2.70
2022-08-14T14:28:17.203Z,2.05
2022-08-14T14:30:56.984Z,2.10
2022-08-14T14:33:45.208Z,2.53
2022-08-14T14:36:14.983Z,2.25
2022-08-14T14:38:52.603Z,2.55
2022-08-14T14:41:20.957Z,2.42
2022-08-14T14:43:51.810Z,2.55
2022-08-14T14:46:21.091Z,2.30
2022-08-14T14:48:54.715Z,2.10
2022-08-14T14:51:22.066Z,2.40
2022-08-14T14:53:48.985Z,1.90
2022-08-14T14:56:50.194Z,2.38
2022-08-14T14:59:04.622Z,2.22
2022-08-14T15:01:35.454Z,2.47
2022-08-14T15:04:08.041Z,2.20
2022-08-14T15:06:48.223Z,2.38
2022-08-14T15:09:17.628Z,2.40
2022-08-14T15:11:47.143Z,2.20
2022-08-14T15:14:56.683Z,2.20
2022-08-14T15:17:01.947Z,2.08
2022-08-14T15:19:28.853Z,2.30
2022-08-14T15:21:55.833Z,2.25
2022-08-14T15:24:26.668Z,2.28
2022-08-14T15:26:56.168Z,2.08
2022-08-14T15:29:22.943Z,2.13
2022-08-14T15:31:53.355Z,2.55
2022-08-14T15:34:43.850Z,2.30
2022-08-14T15:37:12.904Z,2.28
2022-08-14T15:39:41.969Z,2.25
2022-08-14T15:42:14.775Z,2.50
2022-08-14T15:44:58.400Z,2.25
2022-08-14T15:47:34.881Z,2.10
2022-08-14T15:50:08.638Z,2.10
2022-08-14T15:52:37.657Z,2.28
2022-08-14T15:55:10.425Z,2.38
2022-08-14T15:58:02.144Z,3.00
2022-08-14T16:00:49.715Z,2.40
2022-08-14T16:03:27.934Z,2.28
2022-08-14T16:06:11.194Z,2.17
2022-08-14T16:08:44.153Z,2.30
2022-08-14T16:11:11.679Z,2.10
2022-08-14T16:13:43.131Z,2.42
2022-08-14T16:16:34.736Z,2.45
2022-08-14T16:19:00.829Z,2.95
2022-08-14T16:21:29.470Z,2.90
2022-08-14T16:23:59.921Z,2.33
2022-08-14T16:26:29.984Z,2.40
2022-08-14T16:29:07.553Z,2.20
2022-08-14T16:31:38.358Z,2.40
2022-08-14T16:34:44.255Z,2.40
2022-08-14T16:36:53.850Z,2.50
2022-08-14T16:39:22.600Z,2.40
2022-08-14T16:41:53.582Z,2.63
2022-08-14T16:44:33.533Z,2.10
2022-08-14T16:47:04.219Z,2.08
2022-08-14T16:50:03.177Z,2.58
2022-08-14T16:52:26.412Z,2.50
2022-08-14T16:55:09.337Z,4.55
2022-08-14T16:57:54.637Z,2.70
2022-08-14T17:00:43.727Z,6.38
2022-08-14T17:03:13.086Z,5.15
2022-08-14T17:05:43.788Z,3.33
2022-08-14T17:08:33.074Z,4.07
2022-08-14T17:11:11.177Z,3.28
2022-08-14T17:13:58.828Z,2.90
2022-08-14T17:16:29.603Z,2.53
2022-08-14T17:19:00.655Z,3.10
2022-08-14T17:21:41.596Z,2.72
2022-08-14T17:24:56.838Z,4.63
2022-08-14T17:27:04.173Z,5.18
2022-08-14T17:29:33.981Z,5.25
2022-08-14T17:32:22.084Z,5.03
2022-08-14T17:34:57.662Z,5.40
2022-08-14T17:37:55.582Z,11.95
2022-08-14T17:40:30.671Z,9.95
2022-08-14T17:43:01.642Z,4.18
2022-08-14T17:45:38.962Z,7.57
2022-08-14T17:49:14.856Z,5.93
2022-08-14T17:51:14.121Z,6.15
2022-08-14T17:53:53.637Z,7.22
2022-08-14T17:56:28.965Z,8.95
2022-08-14T17:59:04.961Z,8.65
2022-08-14T18:01:36.166Z,10.20
2022-08-14T18:04:20.952Z,9.55
2022-08-14T18:06:58.436Z,6.70
2022-08-14T18:09:36.224Z,6.68
2022-08-14T18:12:04.116Z,7.95
2022-08-14T18:14:32.180Z,7.55
2022-08-14T18:17:02.198Z,9.52
2022-08-14T18:19:30.407Z,11.73
2022-08-14T18:21:59.947Z,13.27
2022-08-14T18:24:31.862Z,9.15
2022-08-14T18:27:10.387Z,13.13
2022-08-14T18:29:55.005Z,9.63
2022-08-14T18:32:31.580Z,8.15
2022-08-14T18:35:11.231Z,9.18
2022-08-14T18:37:41.609Z,9.52
2022-08-14T18:40:22.493Z,7.97
2022-08-14T18:43:03.477Z,11.13
2022-08-14T18:45:43.007Z,10.00
2022-08-14T18:48:19.757Z,8.23
2022-08-14T18:50:57.956Z,13.63
2022-08-14T18:53:34.232Z,10.48
2022-08-14T18:56:09.702Z,11.88
2022-08-14T18:58:57.164Z,8.75
2022-08-14T19:01:37.153Z,8.07
2022-08-14T19:04:04.235Z,11.57
2022-08-14T19:06:42.872Z,8.13
2022-08-14T19:09:53.517Z,7.28
2022-08-14T19:12:57.640Z,7.45
2022-08-14T19:15:28.649Z,7.35
2022-08-14T19:18:14.107Z,7.65
2022-08-14T19:20:49.011Z,7.85
2022-08-14T19:23:23.081Z,5.97
2022-08-14T19:26:36.510Z,6.60
2022-08-14T19:29:23.506Z,7.30
2022-08-14T19:31:55.340Z,7.22
2022-08-14T19:34:52.251Z,7.65
2022-08-14T19:37:52.630Z,5.35
2022-08-14T19:40:46.761Z,5.85
2022-08-14T19:43:55.467Z,3.40
2022-08-14T19:46:38.724Z,4.38
2022-08-14T19:49:02.256Z,8.23
2022-08-14T19:51:32.839Z,6.18
2022-08-14T19:54:13.615Z,3.70
2022-08-14T19:56:45.408Z,3.50
2022-08-14T19:59:19.044Z,3.47
2022-08-14T20:01:51.134Z,2.83
2022-08-14T20:04:47.575Z,3.28
2022-08-14T20:07:28.305Z,4.38
2022-08-14T20:11:04.939Z,3.33
2022-08-14T20:13:12.359Z,3.40
2022-08-14T20:15:47.202Z,2.80
2022-08-14T20:18:38.985Z,2.33
2022-08-14T20:21:05.118Z,3.65
2022-08-14T20:23:38.119Z,3.33
2022-08-14T20:26:31.220Z,2.65
2022-08-14T20:29:07.327Z,2.55
2022-08-14T20:31:36.629Z,2.58
2022-08-14T20:34:06.211Z,2.95
2022-08-14T20:36:37.909Z,2.83
2022-08-14T20:39:15.324Z,3.10
2022-08-14T20:41:51.329Z,3.35
2022-08-14T20:44:41.073Z,2.40
2022-08-14T20:47:14.703Z,3.00
2022-08-14T20:49:41.651Z,2.85
2022-08-14T20:52:18.845Z,2.65
2022-08-14T20:54:50.984Z,2.55
2022-08-14T20:57:19.269Z,2.80
2022-08-14T20:59:52.010Z,4.22
2022-08-14T21:02:34.215Z,3.30
2022-08-14T21:05:17.081Z,2.40
2022-08-14T21:07:50.874Z,3.30
2022-08-14T21:10:33.303Z,2.75
2022-08-14T21:14:09.260Z,2.92
2022-08-14T21:15:56.901Z,3.20
2022-08-14T21:18:28.593Z,3.10
2022-08-14T21:20:55.799Z,3.67
2022-08-14T21:23:23.255Z,2.60
2022-08-14T21:25:50.253Z,2.30
2022-08-14T21:28:29.195Z,1.88
2022-08-14T21:30:58.160Z,2.50
2022-08-14T21:33:24.978Z,2.45
2022-08-14T21:35:55.558Z,2.38
2022-08-14T21:38:33.948Z,2.13
2022-08-14T21:41:42.630Z,2.20
2022-08-14T21:44:17.634Z,2.70
2022-08-14T21:46:55.568Z,2.78
2022-08-14T21:49:25.561Z,2.30
2022-08-14T21:52:51.987Z,2.25
2022-08-14T21:54:55.560Z,2.65
2022-08-14T21:57:55.905Z,3.95
2022-08-14T22:00:30.451Z,2.67
2022-08-14T22:03:05.408Z,2.70
2022-08-14T22:05:32.897Z,2.92
2022-08-14T22:08:02.641Z,2.40
2022-08-14T22:10:29.886Z,2.45
2022-08-14T22:13:01.414Z,2.42
2022-08-14T22:15:29.725Z,2.22
2022-08-14T22:17:58.250Z,2.40
2022-08-14T22:20:28.711Z,2.22
2022-08-14T22:22:57.655Z,2.25
2022-08-14T22:25:33.195Z,2.33
2022-08-14T22:28:05.572Z,2.38
2022-08-14T22:30:33.200Z,2.10
2022-08-14T22:33:00.541Z,2.67
2022-08-14T22:35:29.170Z,2.53
2022-08-14T22:38:34.660Z,2.75
2022-08-14T22:41:12.493Z,3.00
2022-08-14T22:43:34.939Z,2.72
2022-08-14T22:46:06.228Z,2.30
2022-08-14T22:48:43.029Z,3.00
2022-08-14T22:51:09.941Z,3.60
2022-08-14T22:53:40.410Z,2.85
2022-08-14T22:56:20.819Z,2.50
2022-08-14T22:58:53.976Z,2.15
2022-08-14T23:01:57.249Z,2.45
2022-08-14T23:04:35.968Z,2.47
2022-08-14T23:07:21.611Z,2.28
2022-08-14T23:10:32.146Z,2.58
2022-08-14T23:12:54.795Z,2.50
2022-08-14T23:15:24.250Z,2.22
2022-08-14T23:17:55.674Z,2.40
2022-08-14T23:20:23.196Z,2.22
2022-08-14T23:22:56.532Z,2.85
2022-08-14T23:25:56.773Z,2.28
2022-08-14T23:28:34.736Z,2.50
2022-08-14T23:31:12.890Z,2.30
2022-08-14T23:33:45.917Z,2.67
2022-08-14T23:36:31.867Z,3.15
2022-08-14T23:39:10.415Z,2.58
2022-08-14T23:41:46.464Z,2.30
2022-08-14T23:44:22.487Z,2.75
2022-08-14T23:46:56.936Z,2.42
2022-08-14T23:49:28.632Z,2.63
2022-08-14T23:52:50.578Z,2.53
2022-08-14T23:55:02.527Z,3.10
2022-08-14T23:57:30.738Z,2.67
2022-08-14T23:59:57.578Z,2.22
